aviador You're here:

KNBC Decoded Metar

BEAUFORT in SC, USA
Report Time2017-07-27 21:56:00
UTC Time2017-07-27 22:53:58
Flight Rules vfr VFR
Wind150° at 03 kt
W.Decomp.*RWY 14: 2.9 kt HW 0.8 kt RCW
RWY 18: 2.7 kt HW 1.3 kt LCW
RWY 23: 0.8 kt HW 2.9 kt LCW
W.Rank150° ranks 21
Current wind is below 150° avg. (5.5)
Visibility9999 m
Phenomena:N/A
Clouds:Overcast 031 Hf
Expected CloudBase > 1,200 ft AGL from Temp-Dew spread
Ceiling3,100 ft
Temp28°C (ISA +13)
Dew Point25°C (84% RH)
Heat Index32.7°C
QNH1015 hPa
Density Alt1,890 ft
Elevation37 ft
Report Wrong Elevation
Raw Report
KNBC 272156Z 15003KT 10SM OVC031 28/25 A2996 RMK AO2 RAB51E54
SLP146 P0000 T02780250=

Extra information for KNBC:More info

Metar Taf Metar & Taf Last 4 Metars F.Rules Stats Wind Profile Meteogram Temp Stats Airport Information Weather charts Add Link Nearby VenuesMetar ALERT Operation Metar Decoded Social comments

AIRNAV info for KNBC